Terminal Aerodrome Forecast
Issued by NWS Sioux Falls, SD

Home | Current Version | Previous Version | Text Only | Print | Product List | Glossary Off
Versions: 1 2 3 4 5 6 7 8 9 10 11 12 13 14 15 16 17 18 19 20 21 22 23 24 25 26 27 28 29 30 31 32 33 34 35

000
FTUS43 KFSD 221900 AAA
TAFSUX
TAF AMD
KSUX 221947Z 2220/2318 36013KT P6SM SCT045 BKN200
      TEMPO 2220/2222 -SHRA BKN045
     FM230030 01007KT P6SM SKC
     FM231100 04007KT P6SM SCT100=

USA.gov is the U.S. government's official web portal to all federal, state and local government web resources and services.